sensor_id;sensor_type;location;lat;lon;timestamp;temperature;humidity
61145;DHT22;47026;51.208;3.288;2022-11-28T00:02:07;9.70;99.90
61145;DHT22;47026;51.208;3.288;2022-11-28T00:04:32;9.70;99.90
61145;DHT22;47026;51.208;3.288;2022-11-28T00:06:58;9.80;99.90
61145;DHT22;47026;51.208;3.288;2022-11-28T00:09:24;9.80;99.90
61145;DHT22;47026;51.208;3.288;2022-11-28T00:11:50;9.80;99.90
61145;DHT22;47026;51.208;3.288;2022-11-28T00:14:17;9.90;99.90
61145;DHT22;47026;51.208;3.288;2022-11-28T00:16:44;9.90;99.90
61145;DHT22;47026;51.208;3.288;2022-11-28T00:19:11;9.90;99.90
61145;DHT22;47026;51.208;3.288;2022-11-28T00:21:37;9.90;99.90
61145;DHT22;47026;51.208;3.288;2022-11-28T00:24:03;9.90;99.90
61145;DHT22;47026;51.208;3.288;2022-11-28T00:26:30;9.90;99.90
61145;DHT22;47026;51.208;3.288;2022-11-28T00:28:57;10.00;99.90
61145;DHT22;47026;51.208;3.288;2022-11-28T00:31:26;9.90;99.90
61145;DHT22;47026;51.208;3.288;2022-11-28T00:33:53;9.70;99.90
61145;DHT22;47026;51.208;3.288;2022-11-28T00:36:19;9.80;99.90
61145;DHT22;47026;51.208;3.288;2022-11-28T00:38:46;9.80;99.90
61145;DHT22;47026;51.208;3.288;2022-11-28T00:41:12;9.80;99.90
61145;DHT22;47026;51.208;3.288;2022-11-28T00:43:39;9.80;99.90
61145;DHT22;47026;51.208;3.288;2022-11-28T00:46:06;9.90;99.90
61145;DHT22;47026;51.208;3.288;2022-11-28T00:48:33;9.90;99.90
61145;DHT22;47026;51.208;3.288;2022-11-28T00:51:17;9.90;99.90
61145;DHT22;47026;51.208;3.288;2022-11-28T00:53:45;9.90;99.90
61145;DHT22;47026;51.208;3.288;2022-11-28T00:56:15;9.90;99.90
61145;DHT22;47026;51.208;3.288;2022-11-28T00:58:41;9.80;99.90
61145;DHT22;47026;51.208;3.288;2022-11-28T01:03:35;9.80;99.90
61145;DHT22;47026;51.208;3.288;2022-11-28T01:06:07;9.80;99.90
61145;DHT22;47026;51.208;3.288;2022-11-28T01:08:34;9.90;99.90
61145;DHT22;47026;51.208;3.288;2022-11-28T01:11:00;9.80;99.90
61145;DHT22;47026;51.208;3.288;2022-11-28T01:13:27;9.90;99.90
61145;DHT22;47026;51.208;3.288;2022-11-28T01:15:52;9.90;99.90
61145;DHT22;47026;51.208;3.288;2022-11-28T01:18:18;9.80;99.90
61145;DHT22;47026;51.208;3.288;2022-11-28T01:20:44;9.80;99.90
61145;DHT22;47026;51.208;3.288;2022-11-28T01:23:10;9.90;99.90
61145;DHT22;47026;51.208;3.288;2022-11-28T01:25:36;9.90;99.90
61145;DHT22;47026;51.208;3.288;2022-11-28T01:28:02;9.80;99.90
61145;DHT22;47026;51.208;3.288;2022-11-28T01:30:28;9.80;99.90
61145;DHT22;47026;51.208;3.288;2022-11-28T01:32:54;9.80;99.90
61145;DHT22;47026;51.208;3.288;2022-11-28T01:35:19;9.80;99.90
61145;DHT22;47026;51.208;3.288;2022-11-28T01:37:45;9.80;99.90
61145;DHT22;47026;51.208;3.288;2022-11-28T01:40:12;9.80;99.90
61145;DHT22;47026;51.208;3.288;2022-11-28T01:42:38;9.80;99.90
61145;DHT22;47026;51.208;3.288;2022-11-28T01:45:15;9.60;99.90
61145;DHT22;47026;51.208;3.288;2022-11-28T01:47:43;9.60;99.90
61145;DHT22;47026;51.208;3.288;2022-11-28T01:50:10;9.60;99.90
61145;DHT22;47026;51.208;3.288;2022-11-28T01:52:40;9.70;99.90
61145;DHT22;47026;51.208;3.288;2022-11-28T01:55:07;9.60;99.90
61145;DHT22;47026;51.208;3.288;2022-11-28T01:57:35;9.60;99.90
61145;DHT22;47026;51.208;3.288;2022-11-28T02:00:06;9.60;99.90
61145;DHT22;47026;51.208;3.288;2022-11-28T02:05:08;9.60;99.90
61145;DHT22;47026;51.208;3.288;2022-11-28T02:07:34;9.70;99.90
61145;DHT22;47026;51.208;3.288;2022-11-28T02:10:01;9.70;99.90
61145;DHT22;47026;51.208;3.288;2022-11-28T02:18:38;9.70;99.90
61145;DHT22;47026;51.208;3.288;2022-11-28T02:24:22;9.80;99.90
61145;DHT22;47026;51.208;3.288;2022-11-28T02:27:22;9.80;99.90
61145;DHT22;47026;51.208;3.288;2022-11-28T02:41:24;9.70;99.90
61145;DHT22;47026;51.208;3.288;2022-11-28T02:44:09;9.70;99.90
61145;DHT22;47026;51.208;3.288;2022-11-28T02:46:51;9.70;99.90
61145;DHT22;47026;51.208;3.288;2022-11-28T02:49:28;9.60;99.90
61145;DHT22;47026;51.208;3.288;2022-11-28T02:52:18;9.70;99.90
61145;DHT22;47026;51.208;3.288;2022-11-28T02:54:44;9.80;99.90
61145;DHT22;47026;51.208;3.288;2022-11-28T02:57:10;9.90;99.90
61145;DHT22;47026;51.208;3.288;2022-11-28T03:02:20;9.80;99.90
61145;DHT22;47026;51.208;3.288;2022-11-28T03:08:53;9.70;99.90
61145;DHT22;47026;51.208;3.288;2022-11-28T03:13:56;9.70;99.90
61145;DHT22;47026;51.208;3.288;2022-11-28T03:16:28;9.70;99.90
61145;DHT22;47026;51.208;3.288;2022-11-28T03:19:19;9.80;99.90
61145;DHT22;47026;51.208;3.288;2022-11-28T03:22:21;9.80;99.90
61145;DHT22;47026;51.208;3.288;2022-11-28T03:25:04;9.70;99.90
61145;DHT22;47026;51.208;3.288;2022-11-28T03:27:44;9.80;99.90
61145;DHT22;47026;51.208;3.288;2022-11-28T03:30:20;9.90;99.90
61145;DHT22;47026;51.208;3.288;2022-11-28T03:33:03;9.90;99.90
61145;DHT22;47026;51.208;3.288;2022-11-28T03:35:35;10.00;99.90
61145;DHT22;47026;51.208;3.288;2022-11-28T03:38:21;9.90;99.90
61145;DHT22;47026;51.208;3.288;2022-11-28T03:40:53;9.90;99.90
61145;DHT22;47026;51.208;3.288;2022-11-28T03:43:25;9.90;99.90
61145;DHT22;47026;51.208;3.288;2022-11-28T03:45:56;9.90;99.90
61145;DHT22;47026;51.208;3.288;2022-11-28T03:48:26;9.90;99.90
61145;DHT22;47026;51.208;3.288;2022-11-28T03:51:05;9.90;99.90
61145;DHT22;47026;51.208;3.288;2022-11-28T03:53:55;9.90;99.90
61145;DHT22;47026;51.208;3.288;2022-11-28T03:56:25;9.90;99.90
61145;DHT22;47026;51.208;3.288;2022-11-28T03:59:05;9.80;99.90
61145;DHT22;47026;51.208;3.288;2022-11-28T04:01:45;10.00;99.90
61145;DHT22;47026;51.208;3.288;2022-11-28T04:06:57;10.00;99.90
61145;DHT22;47026;51.208;3.288;2022-11-28T04:09:39;10.00;99.90
61145;DHT22;47026;51.208;3.288;2022-11-28T04:12:47;10.00;99.90
61145;DHT22;47026;51.208;3.288;2022-11-28T04:20:35;10.00;99.90
61145;DHT22;47026;51.208;3.288;2022-11-28T04:23:10;9.90;99.90
61145;DHT22;47026;51.208;3.288;2022-11-28T04:25:40;10.00;99.90
61145;DHT22;47026;51.208;3.288;2022-11-28T04:28:11;10.00;99.90
61145;DHT22;47026;51.208;3.288;2022-11-28T04:30:40;9.90;99.90
61145;DHT22;47026;51.208;3.288;2022-11-28T04:33:13;9.90;99.90
61145;DHT22;47026;51.208;3.288;2022-11-28T04:35:46;10.00;99.90
61145;DHT22;47026;51.208;3.288;2022-11-28T04:38:14;10.10;99.90
61145;DHT22;47026;51.208;3.288;2022-11-28T04:40:46;10.10;99.90
61145;DHT22;47026;51.208;3.288;2022-11-28T04:43:18;10.20;99.90
61145;DHT22;47026;51.208;3.288;2022-11-28T04:45:55;10.10;99.90
61145;DHT22;47026;51.208;3.288;2022-11-28T04:48:29;10.00;99.90
61145;DHT22;47026;51.208;3.288;2022-11-28T04:53:30;10.10;99.90
61145;DHT22;47026;51.208;3.288;2022-11-28T04:56:01;10.20;99.90
61145;DHT22;47026;51.208;3.288;2022-11-28T04:58:35;10.30;99.90
61145;DHT22;47026;51.208;3.288;2022-11-28T05:01:07;10.20;99.90
61145;DHT22;47026;51.208;3.288;2022-11-28T05:03:34;10.10;99.90
61145;DHT22;47026;51.208;3.288;2022-11-28T05:06:00;10.20;99.90
61145;DHT22;47026;51.208;3.288;2022-11-28T05:08:26;10.10;99.90
61145;DHT22;47026;51.208;3.288;2022-11-28T05:10:52;10.10;99.90
61145;DHT22;47026;51.208;3.288;2022-11-28T05:13:17;10.10;99.90
61145;DHT22;47026;51.208;3.288;2022-11-28T05:15:43;10.10;99.90
61145;DHT22;47026;51.208;3.288;2022-11-28T05:18:12;10.20;99.90
61145;DHT22;47026;51.208;3.288;2022-11-28T05:20:38;10.20;99.90
61145;DHT22;47026;51.208;3.288;2022-11-28T05:23:03;10.20;99.90
61145;DHT22;47026;51.208;3.288;2022-11-28T05:25:29;10.10;99.90
61145;DHT22;47026;51.208;3.288;2022-11-28T05:27:55;10.10;99.90
61145;DHT22;47026;51.208;3.288;2022-11-28T05:30:21;10.10;99.90
61145;DHT22;47026;51.208;3.288;2022-11-28T05:32:47;10.20;99.90
61145;DHT22;47026;51.208;3.288;2022-11-28T05:35:13;10.20;99.90
61145;DHT22;47026;51.208;3.288;2022-11-28T05:37:39;10.20;99.90
61145;DHT22;47026;51.208;3.288;2022-11-28T05:40:05;10.30;99.90
61145;DHT22;47026;51.208;3.288;2022-11-28T05:42:35;10.30;99.90
61145;DHT22;47026;51.208;3.288;2022-11-28T05:45:01;10.40;99.90
61145;DHT22;47026;51.208;3.288;2022-11-28T05:47:30;10.40;99.90
61145;DHT22;47026;51.208;3.288;2022-11-28T05:49:56;10.30;99.90
61145;DHT22;47026;51.208;3.288;2022-11-28T05:52:34;10.30;99.90
61145;DHT22;47026;51.208;3.288;2022-11-28T05:54:59;10.40;99.90
61145;DHT22;47026;51.208;3.288;2022-11-28T05:57:26;10.40;99.90
61145;DHT22;47026;51.208;3.288;2022-11-28T05:59:54;10.40;99.90
61145;DHT22;47026;51.208;3.288;2022-11-28T06:02:20;10.40;99.90
61145;DHT22;47026;51.208;3.288;2022-11-28T06:04:55;10.40;99.90
61145;DHT22;47026;51.208;3.288;2022-11-28T06:07:21;10.40;99.90
61145;DHT22;47026;51.208;3.288;2022-11-28T06:09:46;10.50;99.90
61145;DHT22;47026;51.208;3.288;2022-11-28T06:12:12;10.40;99.90
61145;DHT22;47026;51.208;3.288;2022-11-28T06:14:38;10.40;99.90
61145;DHT22;47026;51.208;3.288;2022-11-28T06:17:04;10.30;99.90
61145;DHT22;47026;51.208;3.288;2022-11-28T06:19:30;10.30;99.90
61145;DHT22;47026;51.208;3.288;2022-11-28T06:21:56;10.30;99.90
61145;DHT22;47026;51.208;3.288;2022-11-28T06:24:21;10.30;99.90
61145;DHT22;47026;51.208;3.288;2022-11-28T06:26:47;10.20;99.90
61145;DHT22;47026;51.208;3.288;2022-11-28T06:29:13;10.30;99.90
61145;DHT22;47026;51.208;3.288;2022-11-28T06:31:39;10.30;99.90
61145;DHT22;47026;51.208;3.288;2022-11-28T06:34:05;10.30;99.90
61145;DHT22;47026;51.208;3.288;2022-11-28T06:36:31;10.30;99.90
61145;DHT22;47026;51.208;3.288;2022-11-28T06:38:56;10.40;99.90
61145;DHT22;47026;51.208;3.288;2022-11-28T06:41:22;10.20;99.90
61145;DHT22;47026;51.208;3.288;2022-11-28T06:43:48;10.10;99.90
61145;DHT22;47026;51.208;3.288;2022-11-28T06:46:24;10.10;99.90
61145;DHT22;47026;51.208;3.288;2022-11-28T06:48:51;10.10;99.90
61145;DHT22;47026;51.208;3.288;2022-11-28T06:51:18;10.10;99.90
61145;DHT22;47026;51.208;3.288;2022-11-28T06:53:44;10.20;99.90
61145;DHT22;47026;51.208;3.288;2022-11-28T06:56:11;10.20;99.90
61145;DHT22;47026;51.208;3.288;2022-11-28T06:58:38;10.10;99.90
61145;DHT22;47026;51.208;3.288;2022-11-28T07:01:16;10.00;99.90
61145;DHT22;47026;51.208;3.288;2022-11-28T07:03:42;10.00;99.90
61145;DHT22;47026;51.208;3.288;2022-11-28T07:06:09;10.00;99.90
61145;DHT22;47026;51.208;3.288;2022-11-28T07:08:35;10.10;99.90
61145;DHT22;47026;51.208;3.288;2022-11-28T07:11:12;10.00;99.90
61145;DHT22;47026;51.208;3.288;2022-11-28T07:13:39;10.00;99.90
61145;DHT22;47026;51.208;3.288;2022-11-28T07:16:06;9.90;99.90
61145;DHT22;47026;51.208;3.288;2022-11-28T07:18:32;9.90;99.90
61145;DHT22;47026;51.208;3.288;2022-11-28T07:20:58;9.80;99.90
61145;DHT22;47026;51.208;3.288;2022-11-28T07:23:24;9.70;99.90
61145;DHT22;47026;51.208;3.288;2022-11-28T07:25:56;9.70;99.90
61145;DHT22;47026;51.208;3.288;2022-11-28T07:28:22;9.70;99.90
61145;DHT22;47026;51.208;3.288;2022-11-28T07:30:47;9.70;99.90
61145;DHT22;47026;51.208;3.288;2022-11-28T07:33:13;9.70;99.90
61145;DHT22;47026;51.208;3.288;2022-11-28T07:35:39;9.50;99.90
61145;DHT22;47026;51.208;3.288;2022-11-28T07:38:05;9.50;99.90
61145;DHT22;47026;51.208;3.288;2022-11-28T07:40:31;9.50;99.90
61145;DHT22;47026;51.208;3.288;2022-11-28T07:42:57;9.40;99.90
61145;DHT22;47026;51.208;3.288;2022-11-28T07:45:23;9.40;99.90
61145;DHT22;47026;51.208;3.288;2022-11-28T07:47:48;9.50;99.90
61145;DHT22;47026;51.208;3.288;2022-11-28T07:50:14;9.40;99.90
61145;DHT22;47026;51.208;3.288;2022-11-28T07:52:40;9.50;99.90
61145;DHT22;47026;51.208;3.288;2022-11-28T07:55:06;9.40;99.90
61145;DHT22;47026;51.208;3.288;2022-11-28T07:57:32;9.50;99.90
61145;DHT22;47026;51.208;3.288;2022-11-28T07:59:58;9.60;99.90
61145;DHT22;47026;51.208;3.288;2022-11-28T08:02:24;9.60;99.90
61145;DHT22;47026;51.208;3.288;2022-11-28T08:04:51;9.60;99.90
61145;DHT22;47026;51.208;3.288;2022-11-28T08:07:17;9.60;99.90
61145;DHT22;47026;51.208;3.288;2022-11-28T08:09:43;9.70;99.90
61145;DHT22;47026;51.208;3.288;2022-11-28T08:12:08;9.70;99.90
61145;DHT22;47026;51.208;3.288;2022-11-28T08:14:34;10.00;99.90
61145;DHT22;47026;51.208;3.288;2022-11-28T08:17:00;10.30;99.90
61145;DHT22;47026;51.208;3.288;2022-11-28T08:19:26;10.30;99.90
61145;DHT22;47026;51.208;3.288;2022-11-28T08:21:52;10.20;99.90
61145;DHT22;47026;51.208;3.288;2022-11-28T08:24:18;10.20;99.90
61145;DHT22;47026;51.208;3.288;2022-11-28T08:26:44;10.20;99.90
61145;DHT22;47026;51.208;3.288;2022-11-28T08:29:09;10.10;99.90
61145;DHT22;47026;51.208;3.288;2022-11-28T08:31:36;10.00;99.90
61145;DHT22;47026;51.208;3.288;2022-11-28T08:34:06;10.00;99.90
61145;DHT22;47026;51.208;3.288;2022-11-28T08:36:41;10.00;99.90
61145;DHT22;47026;51.208;3.288;2022-11-28T08:39:09;10.10;99.90
61145;DHT22;47026;51.208;3.288;2022-11-28T08:41:35;10.20;99.90
61145;DHT22;47026;51.208;3.288;2022-11-28T08:44:01;10.30;99.90
61145;DHT22;47026;51.208;3.288;2022-11-28T08:46:27;10.10;99.90
61145;DHT22;47026;51.208;3.288;2022-11-28T08:48:52;10.10;99.90
61145;DHT22;47026;51.208;3.288;2022-11-28T08:51:20;10.20;99.90
61145;DHT22;47026;51.208;3.288;2022-11-28T08:53:48;10.30;99.90
61145;DHT22;47026;51.208;3.288;2022-11-28T08:56:15;10.40;99.90
61145;DHT22;47026;51.208;3.288;2022-11-28T08:58:41;10.40;99.90
61145;DHT22;47026;51.208;3.288;2022-11-28T09:01:22;10.40;99.90
61145;DHT22;47026;51.208;3.288;2022-11-28T09:03:49;10.70;99.90
61145;DHT22;47026;51.208;3.288;2022-11-28T09:06:15;10.50;99.90
61145;DHT22;47026;51.208;3.288;2022-11-28T09:08:42;10.60;99.90
61145;DHT22;47026;51.208;3.288;2022-11-28T09:11:10;10.80;99.90
61145;DHT22;47026;51.208;3.288;2022-11-28T09:13:36;11.00;99.90
61145;DHT22;47026;51.208;3.288;2022-11-28T09:16:03;11.00;99.90
61145;DHT22;47026;51.208;3.288;2022-11-28T09:18:29;10.80;99.90
61145;DHT22;47026;51.208;3.288;2022-11-28T09:20:59;10.80;99.90
61145;DHT22;47026;51.208;3.288;2022-11-28T09:23:26;10.80;99.90
61145;DHT22;47026;51.208;3.288;2022-11-28T09:25:52;10.90;99.90
61145;DHT22;47026;51.208;3.288;2022-11-28T09:28:18;10.90;99.90
61145;DHT22;47026;51.208;3.288;2022-11-28T09:30:44;10.90;99.90
61145;DHT22;47026;51.208;3.288;2022-11-28T09:33:09;11.10;99.90
61145;DHT22;47026;51.208;3.288;2022-11-28T09:35:38;11.00;99.90
61145;DHT22;47026;51.208;3.288;2022-11-28T09:38:04;11.20;99.90
61145;DHT22;47026;51.208;3.288;2022-11-28T09:40:30;11.10;99.90
61145;DHT22;47026;51.208;3.288;2022-11-28T09:43:00;11.10;99.90
61145;DHT22;47026;51.208;3.288;2022-11-28T09:45:26;11.20;99.90
61145;DHT22;47026;51.208;3.288;2022-11-28T09:47:55;11.30;99.90
61145;DHT22;47026;51.208;3.288;2022-11-28T09:50:29;11.10;99.90
61145;DHT22;47026;51.208;3.288;2022-11-28T09:56:13;10.60;99.90
61145;DHT22;47026;51.208;3.288;2022-11-28T09:58:54;10.60;99.90
61145;DHT22;47026;51.208;3.288;2022-11-28T10:01:45;10.40;99.90
61145;DHT22;47026;51.208;3.288;2022-11-28T10:05:10;10.40;99.90
61145;DHT22;47026;51.208;3.288;2022-11-28T10:07:48;10.50;99.90
61145;DHT22;47026;51.208;3.288;2022-11-28T10:13:29;10.30;99.90
61145;DHT22;47026;51.208;3.288;2022-11-28T10:16:20;10.40;99.90
61145;DHT22;47026;51.208;3.288;2022-11-28T10:18:54;10.30;99.90
61145;DHT22;47026;51.208;3.288;2022-11-28T10:21:46;10.40;99.90
61145;DHT22;47026;51.208;3.288;2022-11-28T10:24:32;10.60;99.90
61145;DHT22;47026;51.208;3.288;2022-11-28T10:27:03;10.60;99.90
61145;DHT22;47026;51.208;3.288;2022-11-28T10:30:14;10.80;99.90
61145;DHT22;47026;51.208;3.288;2022-11-28T10:32:31;10.90;99.90
61145;DHT22;47026;51.208;3.288;2022-11-28T10:35:19;11.00;99.90
61145;DHT22;47026;51.208;3.288;2022-11-28T10:37:48;10.80;99.90
61145;DHT22;47026;51.208;3.288;2022-11-28T10:43:29;10.80;99.90
61145;DHT22;47026;51.208;3.288;2022-11-28T10:54:42;10.50;99.90
61145;DHT22;47026;51.208;3.288;2022-11-28T10:57:19;10.40;99.90
61145;DHT22;47026;51.208;3.288;2022-11-28T11:00:10;10.60;99.90
61145;DHT22;47026;51.208;3.288;2022-11-28T11:02:44;10.70;99.90
61145;DHT22;47026;51.208;3.288;2022-11-28T11:05:13;10.60;99.90
61145;DHT22;47026;51.208;3.288;2022-11-28T11:07:47;10.60;99.90
61145;DHT22;47026;51.208;3.288;2022-11-28T11:10:17;10.60;99.90
61145;DHT22;47026;51.208;3.288;2022-11-28T11:12:53;10.70;99.90
61145;DHT22;47026;51.208;3.288;2022-11-28T11:17:44;10.70;99.90
61145;DHT22;47026;51.208;3.288;2022-11-28T11:22:59;11.10;99.90
61145;DHT22;47026;51.208;3.288;2022-11-28T11:25:28;11.20;99.90
61145;DHT22;47026;51.208;3.288;2022-11-28T11:27:57;11.30;99.90
61145;DHT22;47026;51.208;3.288;2022-11-28T11:32:53;11.40;99.90
61145;DHT22;47026;51.208;3.288;2022-11-28T11:35:27;11.40;99.90
61145;DHT22;47026;51.208;3.288;2022-11-28T11:38:34;11.50;99.90
61145;DHT22;47026;51.208;3.288;2022-11-28T11:41:29;11.50;99.90
61145;DHT22;47026;51.208;3.288;2022-11-28T11:43:56;11.80;99.90
61145;DHT22;47026;51.208;3.288;2022-11-28T11:46:57;12.20;99.90
61145;DHT22;47026;51.208;3.288;2022-11-28T11:49:39;12.60;99.90
61145;DHT22;47026;51.208;3.288;2022-11-28T11:57:28;13.70;99.90
61145;DHT22;47026;51.208;3.288;2022-11-28T12:00:05;14.00;99.90
61145;DHT22;47026;51.208;3.288;2022-11-28T12:02:36;14.30;99.90
61145;DHT22;47026;51.208;3.288;2022-11-28T12:05:13;14.40;99.90
61145;DHT22;47026;51.208;3.288;2022-11-28T12:08:08;14.20;99.90
61145;DHT22;47026;51.208;3.288;2022-11-28T12:10:41;14.10;99.90
61145;DHT22;47026;51.208;3.288;2022-11-28T12:13:21;13.80;99.90
61145;DHT22;47026;51.208;3.288;2022-11-28T12:22:01;13.50;99.90
61145;DHT22;47026;51.208;3.288;2022-11-28T12:33:15;12.90;99.90
61145;DHT22;47026;51.208;3.288;2022-11-28T12:35:50;13.10;99.90
61145;DHT22;47026;51.208;3.288;2022-11-28T12:38:38;13.00;99.90
61145;DHT22;47026;51.208;3.288;2022-11-28T12:46:46;13.10;99.90
61145;DHT22;47026;51.208;3.288;2022-11-28T12:49:17;12.90;99.90
61145;DHT22;47026;51.208;3.288;2022-11-28T13:01:12;13.30;99.90
61145;DHT22;47026;51.208;3.288;2022-11-28T13:11:55;13.10;99.90
61145;DHT22;47026;51.208;3.288;2022-11-28T13:17:29;13.30;99.90
61145;DHT22;47026;51.208;3.288;2022-11-28T13:20:23;13.10;99.90
61145;DHT22;47026;51.208;3.288;2022-11-28T13:23:18;13.30;99.90
61145;DHT22;47026;51.208;3.288;2022-11-28T13:25:52;13.10;99.90
61145;DHT22;47026;51.208;3.288;2022-11-28T13:31:06;12.80;99.90
61145;DHT22;47026;51.208;3.288;2022-11-28T13:33:52;12.60;99.90
61145;DHT22;47026;51.208;3.288;2022-11-28T13:39:16;12.50;99.90
61145;DHT22;47026;51.208;3.288;2022-11-28T13:41:51;12.40;99.90
61145;DHT22;47026;51.208;3.288;2022-11-28T13:44:34;12.50;99.90
61145;DHT22;47026;51.208;3.288;2022-11-28T13:47:13;12.60;99.90
61145;DHT22;47026;51.208;3.288;2022-11-28T13:49:39;12.40;99.90
61145;DHT22;47026;51.208;3.288;2022-11-28T13:54:53;12.50;99.90
61145;DHT22;47026;51.208;3.288;2022-11-28T13:57:26;12.80;99.90
61145;DHT22;47026;51.208;3.288;2022-11-28T14:00:05;12.90;99.90
61145;DHT22;47026;51.208;3.288;2022-11-28T14:02:42;13.00;99.90
61145;DHT22;47026;51.208;3.288;2022-11-28T14:05:36;13.00;99.90
61145;DHT22;47026;51.208;3.288;2022-11-28T14:08:03;12.70;99.90
61145;DHT22;47026;51.208;3.288;2022-11-28T14:10:52;12.70;99.90
61145;DHT22;47026;51.208;3.288;2022-11-28T14:26:33;12.40;99.90
61145;DHT22;47026;51.208;3.288;2022-11-28T14:29:02;12.20;99.90
61145;DHT22;47026;51.208;3.288;2022-11-28T14:33:59;12.40;99.90
61145;DHT22;47026;51.208;3.288;2022-11-28T14:36:34;12.40;99.90
61145;DHT22;47026;51.208;3.288;2022-11-28T14:39:08;12.30;99.90
61145;DHT22;47026;51.208;3.288;2022-11-28T14:47:27;12.20;99.90
61145;DHT22;47026;51.208;3.288;2022-11-28T14:52:43;12.10;99.90
61145;DHT22;47026;51.208;3.288;2022-11-28T14:57:49;12.20;99.90
61145;DHT22;47026;51.208;3.288;2022-11-28T15:05:44;12.40;99.90
61145;DHT22;47026;51.208;3.288;2022-11-28T15:08:41;12.50;99.90
61145;DHT22;47026;51.208;3.288;2022-11-28T15:11:53;12.50;99.90
61145;DHT22;47026;51.208;3.288;2022-11-28T15:14:25;12.40;99.90
61145;DHT22;47026;51.208;3.288;2022-11-28T15:16:55;12.40;99.90
61145;DHT22;47026;51.208;3.288;2022-11-28T15:19:36;12.40;99.90
61145;DHT22;47026;51.208;3.288;2022-11-28T15:22:04;12.40;99.90
61145;DHT22;47026;51.208;3.288;2022-11-28T15:24:34;12.20;99.90
61145;DHT22;47026;51.208;3.288;2022-11-28T15:29:33;12.30;99.90
61145;DHT22;47026;51.208;3.288;2022-11-28T15:32:00;12.20;99.90
61145;DHT22;47026;51.208;3.288;2022-11-28T15:34:31;12.10;99.90
61145;DHT22;47026;51.208;3.288;2022-11-28T15:37:05;12.10;99.90
61145;DHT22;47026;51.208;3.288;2022-11-28T15:39:34;12.00;99.90
61145;DHT22;47026;51.208;3.288;2022-11-28T15:42:06;11.90;99.90
61145;DHT22;47026;51.208;3.288;2022-11-28T15:44:34;11.80;99.90
61145;DHT22;47026;51.208;3.288;2022-11-28T15:47:02;11.80;99.90
61145;DHT22;47026;51.208;3.288;2022-11-28T15:49:33;11.60;99.90
61145;DHT22;47026;51.208;3.288;2022-11-28T15:52:02;11.70;99.90
61145;DHT22;47026;51.208;3.288;2022-11-28T15:54:37;11.60;99.90
61145;DHT22;47026;51.208;3.288;2022-11-28T15:57:04;11.60;99.90
61145;DHT22;47026;51.208;3.288;2022-11-28T15:59:30;11.50;99.90
61145;DHT22;47026;51.208;3.288;2022-11-28T16:02:01;11.50;99.90
61145;DHT22;47026;51.208;3.288;2022-11-28T16:04:28;11.40;99.90
61145;DHT22;47026;51.208;3.288;2022-11-28T16:06:56;11.30;99.90
61145;DHT22;47026;51.208;3.288;2022-11-28T16:09:32;11.30;99.90
61145;DHT22;47026;51.208;3.288;2022-11-28T16:12:04;11.30;99.90
61145;DHT22;47026;51.208;3.288;2022-11-28T16:14:42;11.20;99.90
61145;DHT22;47026;51.208;3.288;2022-11-28T16:17:17;11.20;99.90
61145;DHT22;47026;51.208;3.288;2022-11-28T16:19:43;11.30;99.90
61145;DHT22;47026;51.208;3.288;2022-11-28T16:22:18;11.20;99.90
61145;DHT22;47026;51.208;3.288;2022-11-28T16:24:49;11.20;99.90
61145;DHT22;47026;51.208;3.288;2022-11-28T16:27:39;11.00;99.90
61145;DHT22;47026;51.208;3.288;2022-11-28T16:32:52;11.00;99.90
61145;DHT22;47026;51.208;3.288;2022-11-28T16:35:39;11.10;99.90
61145;DHT22;47026;51.208;3.288;2022-11-28T16:38:26;11.10;99.90
61145;DHT22;47026;51.208;3.288;2022-11-28T16:40:58;11.00;99.90
61145;DHT22;47026;51.208;3.288;2022-11-28T16:45:58;10.90;99.90
61145;DHT22;47026;51.208;3.288;2022-11-28T16:48:27;10.80;99.90
61145;DHT22;47026;51.208;3.288;2022-11-28T16:59:14;10.60;99.90
61145;DHT22;47026;51.208;3.288;2022-11-28T17:01:42;10.60;99.90
61145;DHT22;47026;51.208;3.288;2022-11-28T17:04:26;10.50;99.90
61145;DHT22;47026;51.208;3.288;2022-11-28T17:06:57;10.40;99.90
61145;DHT22;47026;51.208;3.288;2022-11-28T17:09:23;10.40;99.90
61145;DHT22;47026;51.208;3.288;2022-11-28T17:14:14;10.30;99.90
61145;DHT22;47026;51.208;3.288;2022-11-28T17:16:41;10.20;99.90
61145;DHT22;47026;51.208;3.288;2022-11-28T17:19:07;10.10;99.90
61145;DHT22;47026;51.208;3.288;2022-11-28T17:21:37;10.10;99.90
61145;DHT22;47026;51.208;3.288;2022-11-28T17:24:04;10.10;99.90
61145;DHT22;47026;51.208;3.288;2022-11-28T17:26:30;9.80;99.90
61145;DHT22;47026;51.208;3.288;2022-11-28T17:28:57;9.70;99.90
61145;DHT22;47026;51.208;3.288;2022-11-28T17:31:23;9.60;99.90
61145;DHT22;47026;51.208;3.288;2022-11-28T17:33:52;9.50;99.90
61145;DHT22;47026;51.208;3.288;2022-11-28T17:36:17;9.50;99.90
61145;DHT22;47026;51.208;3.288;2022-11-28T17:38:43;9.40;99.90
61145;DHT22;47026;51.208;3.288;2022-11-28T17:41:11;9.30;99.90
61145;DHT22;47026;51.208;3.288;2022-11-28T17:43:38;9.40;99.90
61145;DHT22;47026;51.208;3.288;2022-11-28T17:46:04;9.40;99.90
61145;DHT22;47026;51.208;3.288;2022-11-28T17:48:30;9.40;99.90
61145;DHT22;47026;51.208;3.288;2022-11-28T17:50:56;9.50;99.90
61145;DHT22;47026;51.208;3.288;2022-11-28T17:53:22;9.40;99.90
61145;DHT22;47026;51.208;3.288;2022-11-28T17:55:48;9.50;99.90
61145;DHT22;47026;51.208;3.288;2022-11-28T17:58:22;9.40;99.90
61145;DHT22;47026;51.208;3.288;2022-11-28T18:00:52;9.50;99.90
61145;DHT22;47026;51.208;3.288;2022-11-28T18:03:18;9.50;99.90
61145;DHT22;47026;51.208;3.288;2022-11-28T18:05:45;9.50;99.90
61145;DHT22;47026;51.208;3.288;2022-11-28T18:08:13;9.60;99.90
61145;DHT22;47026;51.208;3.288;2022-11-28T18:10:39;9.50;99.90
61145;DHT22;47026;51.208;3.288;2022-11-28T18:13:05;9.50;99.90
61145;DHT22;47026;51.208;3.288;2022-11-28T18:15:31;9.50;99.90
61145;DHT22;47026;51.208;3.288;2022-11-28T18:17:59;9.50;99.90
61145;DHT22;47026;51.208;3.288;2022-11-28T18:20:24;9.40;99.90
61145;DHT22;47026;51.208;3.288;2022-11-28T18:22:56;9.30;99.90
61145;DHT22;47026;51.208;3.288;2022-11-28T18:25:23;9.30;99.90
61145;DHT22;47026;51.208;3.288;2022-11-28T18:27:49;9.20;99.90
61145;DHT22;47026;51.208;3.288;2022-11-28T18:30:15;8.80;99.90
61145;DHT22;47026;51.208;3.288;2022-11-28T18:32:41;8.90;99.90
61145;DHT22;47026;51.208;3.288;2022-11-28T18:35:07;8.90;99.90
61145;DHT22;47026;51.208;3.288;2022-11-28T18:37:34;8.90;99.90
61145;DHT22;47026;51.208;3.288;2022-11-28T18:39:59;9.00;99.90
61145;DHT22;47026;51.208;3.288;2022-11-28T18:42:25;8.90;99.90
61145;DHT22;47026;51.208;3.288;2022-11-28T18:44:50;8.90;99.90
61145;DHT22;47026;51.208;3.288;2022-11-28T18:47:16;9.00;99.90
61145;DHT22;47026;51.208;3.288;2022-11-28T18:49:42;8.90;99.90
61145;DHT22;47026;51.208;3.288;2022-11-28T18:52:08;8.90;99.90
61145;DHT22;47026;51.208;3.288;2022-11-28T18:54:34;8.90;99.90
61145;DHT22;47026;51.208;3.288;2022-11-28T18:57:00;8.90;99.90
61145;DHT22;47026;51.208;3.288;2022-11-28T18:59:25;8.80;99.90